Time;durP1;ratioP1;P1;durP2;ratioP2;P2;SDS_P1;SDS_P2;PMS_P1;PMS_P2;Temp;Humidity;BMP_temperature;BMP_pressure;BME280_temperature;BME280_humidity;BME280_pressure;Samples;Min_cycle;Max_cycle;Signal;HPM_P1;HPM_P2
2021/12/03 00:01:11;;;;;;;6.93;3.05;;;;;;;7.95;55.58;101136.50;4953346;29;20094;-64
2021/12/03 00:03:36;;;;;;;6.65;2.65;;;;;;;8.02;55.12;101130.72;4936207;29;20046;-61
2021/12/03 00:06:02;;;;;;;8.15;3.00;;;;;;;7.99;55.29;101132.13;4936410;29;20035;-66
2021/12/03 00:08:28;;;;;;;11.55;3.10;;;;;;;7.71;56.68;101136.31;4952282;29;20023;-62
2021/12/03 00:10:58;;;;;;;6.50;2.78;;;;;;;7.87;56.08;101142.53;4936351;29;20028;-63
2021/12/03 00:13:24;;;;;;;4.80;2.70;;;;;;;7.81;56.69;101142.56;4936039;29;20051;-61
2021/12/03 00:15:51;;;;;;;9.07;3.15;;;;;;;8.31;55.00;101147.28;4936639;29;20042;-60
2021/12/03 00:18:16;;;;;;;7.20;3.40;;;;;;;8.08;55.60;101146.84;4936285;29;20090;-63
2021/12/03 00:20:42;;;;;;;7.88;3.25;;;;;;;7.65;56.80;101143.66;4914964;29;1102359;-61
2021/12/03 00:23:08;;;;;;;9.30;3.05;;;;;;;7.29;58.32;101146.47;4953957;29;20062;-62
2021/12/03 00:25:34;;;;;;;13.20;3.08;;;;;;;7.48;58.28;101149.44;4953651;29;20032;-62
2021/12/03 00:28:00;;;;;;;10.50;2.92;;;;;;;7.31;58.98;101143.47;4953569;29;20027;-62
2021/12/03 00:30:26;;;;;;;4.78;2.42;;;;;;;7.97;56.91;101150.72;4953694;29;20024;-61
2021/12/03 00:32:52;;;;;;;11.23;3.35;;;;;;;7.64;57.42;101152.97;4953820;29;20047;-63
2021/12/03 00:35:18;;;;;;;6.78;2.92;;;;;;;7.94;56.92;101151.25;4953700;29;20035;-62
2021/12/03 00:37:45;;;;;;;8.70;3.03;;;;;;;7.99;57.08;101153.97;4936713;29;20051;-61
2021/12/03 00:40:14;;;;;;;12.20;3.55;;;;;;;7.76;57.36;101150.75;4953356;29;20030;-62
2021/12/03 00:42:40;;;;;;;7.57;3.45;;;;;;;8.09;56.31;101153.13;4953348;29;20043;-63
2021/12/03 00:45:08;;;;;;;11.20;3.70;;;;;;;7.77;57.15;101146.91;4953502;29;20031;-61
2021/12/03 00:47:33;;;;;;;;;;;;;;;8.09;56.65;101161.31;4921377;29;20032;-62
2021/12/03 00:49:59;;;;;;;6.43;2.72;;;;;;;8.20;56.04;101148.44;4953738;29;19917;-64
2021/12/03 00:52:24;;;;;;;4.93;2.30;;;;;;;8.16;56.15;101154.47;4936297;29;20031;-61
2021/12/03 00:54:50;;;;;;;8.75;2.35;;;;;;;7.53;57.65;101156.81;4953464;29;20031;-60
2021/12/03 00:57:16;;;;;;;5.45;1.95;;;;;;;8.34;55.31;101149.47;4936678;29;20035;-63
2021/12/03 00:59:42;;;;;;;6.97;2.17;;;;;;;8.62;54.13;101149.88;4953123;29;20070;-63
2021/12/03 01:02:08;;;;;;;5.70;1.80;;;;;;;8.46;54.81;101146.41;4953214;29;20028;-62
2021/12/03 01:04:33;;;;;;;5.72;1.77;;;;;;;8.17;55.83;101136.94;4952834;29;20042;-62
2021/12/03 01:06:59;;;;;;;6.13;1.80;;;;;;;7.92;56.14;101148.81;4953208;29;20039;-61
2021/12/03 01:09:24;;;;;;;6.13;1.85;;;;;;;8.19;55.81;101136.69;4936279;29;20031;-62
2021/12/03 01:11:50;;;;;;;6.80;1.42;;;;;;;8.53;55.18;101136.81;4953161;29;20035;-61
2021/12/03 01:14:17;;;;;;;4.18;1.58;;;;;;;8.15;56.29;101136.44;4953412;29;20031;-63
2021/12/03 01:16:43;;;;;;;9.63;1.80;;;;;;;8.10;56.68;101128.25;4952855;29;20035;-61
2021/12/03 01:19:09;;;;;;;6.78;1.65;;;;;;;7.70;57.41;101130.03;4937979;29;20087;-63
2021/12/03 01:21:34;;;;;;;4.10;1.63;;;;;;;7.85;57.56;101134.63;4939860;29;20551;-61
2021/12/03 01:24:00;;;;;;;5.88;1.63;;;;;;;7.94;57.23;101130.22;4957277;29;20108;-63
2021/12/03 01:26:25;;;;;;;4.82;1.40;;;;;;;8.24;56.31;101133.94;4940475;29;20027;-62
2021/12/03 01:28:51;;;;;;;3.35;1.30;;;;;;;8.40;56.37;101121.03;4956898;29;20059;-61
2021/12/03 01:31:18;;;;;;;3.13;1.20;;;;;;;8.13;56.69;101133.16;4940281;29;20095;-65
2021/12/03 01:33:45;;;;;;;5.38;1.20;;;;;;;8.26;57.15;101133.66;4923958;29;20095;-62
2021/12/03 01:36:11;;;;;;;4.43;1.55;;;;;;;8.35;56.49;101141.00;4957086;29;20028;-61
2021/12/03 01:38:36;;;;;;;3.63;1.40;;;;;;;8.62;55.85;101147.16;4940147;29;20046;-63
2021/12/03 01:41:02;;;;;;;6.95;1.73;;;;;;;8.81;55.09;101152.78;4956773;29;20035;-63
2021/12/03 01:43:27;;;;;;;8.93;1.90;;;;;;;9.07;54.49;101148.75;4939992;29;20031;-62
2021/12/03 01:45:59;;;;;;;3.60;1.63;;;;;;;8.80;55.27;101156.63;4939594;29;20038;-64
2021/12/03 01:48:25;;;;;;;10.52;2.38;;;;;;;8.56;55.81;101135.44;4939941;29;20031;-61
2021/12/03 01:50:51;;;;;;;6.03;1.38;;;;;;;7.65;58.06;101138.22;4939661;29;20559;-63
2021/12/03 01:53:20;;;;;;;7.40;1.70;;;;;;;8.66;56.05;101134.56;4956584;29;20051;-63
2021/12/03 01:55:47;;;;;;;6.90;1.42;;;;;;;8.43;56.79;101136.88;4956395;29;20032;-63
2021/12/03 01:58:13;;;;;;;2.85;1.30;;;;;;;8.57;56.48;101134.31;4939738;29;20035;-62
2021/12/03 02:00:47;;;;;;;7.97;1.73;;;;;;;8.40;57.13;101126.50;4956064;29;20119;-62
2021/12/03 02:03:15;;;;;;;3.40;1.50;;;;;;;8.28;57.18;101120.53;4956335;29;20043;-64
2021/12/03 02:05:41;;;;;;;;;;;;;;;8.74;55.90;101117.56;4956331;29;20055;-63
2021/12/03 02:08:06;;;;;;;4.93;1.63;;;;;;;8.56;56.73;101123.69;4956491;29;19918;-61
2021/12/03 02:10:33;;;;;;;3.13;1.50;;;;;;;9.23;54.63;101111.16;4956121;29;20023;-61
2021/12/03 02:12:58;;;;;;;7.13;1.50;;;;;;;9.40;53.80;101116.19;4939514;29;20031;-62
2021/12/03 02:15:24;;;;;;;7.30;1.73;;;;;;;8.58;56.41;101099.63;4939291;29;20071;-63
2021/12/03 02:17:49;;;;;;;3.75;1.45;;;;;;;8.65;56.30;101100.13;4939117;29;20031;-62
2021/12/03 02:20:15;;;;;;;8.65;1.50;;;;;;;8.52;56.71;101102.38;4939016;29;20063;-61
2021/12/03 02:22:41;;;;;;;3.88;1.30;;;;;;;8.59;56.71;101101.25;4955572;29;20044;-62
2021/12/03 02:25:11;;;;;;;5.93;1.40;;;;;;;8.51;57.22;101111.69;4939438;29;20032;-62
2021/12/03 02:27:36;;;;;;;3.78;1.33;;;;;;;8.57;56.84;101114.38;4955915;29;20728;-62
2021/12/03 02:30:04;;;;;;;7.78;1.30;;;;;;;8.90;56.08;101124.53;4955733;29;20030;-61
2021/12/03 02:32:30;;;;;;;5.50;1.25;;;;;;;8.52;56.99;101121.50;4955846;29;20040;-62
2021/12/03 02:34:55;;;;;;;8.63;1.33;;;;;;;8.37;57.66;101121.59;4955555;29;20099;-61
2021/12/03 02:37:21;;;;;;;7.18;1.33;;;;;;;8.76;56.75;101112.63;4939025;29;20031;-63
2021/12/03 02:39:46;;;;;;;9.27;1.15;;;;;;;8.70;57.38;101111.84;4938602;29;20046;-61
2021/12/03 02:42:11;;;;;;;7.93;1.40;;;;;;;8.62;57.22;101112.47;4955877;29;20036;-62
2021/12/03 02:44:37;;;;;;;6.97;1.10;;;;;;;8.47;57.71;101107.88;4955362;29;20036;-61
2021/12/03 02:47:03;;;;;;;8.68;1.58;;;;;;;8.46;57.76;101114.47;4955897;29;20046;-63
2021/12/03 02:49:29;;;;;;;6.38;1.40;;;;;;;8.17;58.75;101115.09;4955799;29;20028;-63
2021/12/03 02:51:54;;;;;;;8.13;1.30;;;;;;;8.64;57.22;101109.44;4955016;29;20075;-63
2021/12/03 02:54:20;;;;;;;9.75;1.70;;;;;;;8.89;56.81;101105.69;4938933;29;20062;-62
2021/12/03 02:56:46;;;;;;;4.97;1.45;;;;;;;9.00;56.37;101111.91;4955270;29;20040;-63
2021/12/03 02:59:11;;;;;;;11.93;1.50;;;;;;;9.39;55.34;101113.75;4955546;29;20035;-60
2021/12/03 03:01:37;;;;;;;5.95;1.58;;;;;;;9.72;54.15;101113.94;4938723;29;20036;-62
2021/12/03 03:04:02;;;;;;;4.82;1.40;;;;;;;9.50;54.17;101106.25;4938280;29;20042;-64
2021/12/03 03:06:28;;;;;;;7.25;1.50;;;;;;;8.58;56.36;101096.91;4955699;29;20042;-63
2021/12/03 03:08:53;;;;;;;12.15;1.33;;;;;;;8.38;57.46;101098.59;4938153;29;20040;-64
2021/12/03 03:11:21;;;;;;;7.75;1.33;;;;;;;8.76;56.41;101101.69;4955485;29;20039;-62
2021/12/03 03:13:47;;;;;;;3.90;1.08;;;;;;;8.84;56.19;101101.06;4922789;29;20035;-63
2021/12/03 03:16:15;;;;;;;3.92;1.13;;;;;;;8.82;56.30;101106.00;4938318;29;20027;-61
2021/12/03 03:18:41;;;;;;;5.40;1.20;;;;;;;9.13;55.01;101100.31;4954856;29;20083;-62
2021/12/03 03:21:07;;;;;;;5.68;1.05;;;;;;;8.64;56.79;101095.78;4954868;29;20052;-64
2021/12/03 03:23:34;;;;;;;10.73;1.75;;;;;;;8.81;56.55;101093.47;4955325;29;20083;-62
2021/12/03 03:26:00;;;;;;;8.35;1.52;;;;;;;8.90;56.18;101086.25;4954915;29;20024;-65
2021/12/03 03:28:26;;;;;;;4.25;1.10;;;;;;;8.98;55.93;101081.28;4955434;29;20032;-63
2021/12/03 03:30:53;;;;;;;3.53;1.02;;;;;;;8.94;56.06;101081.06;4954684;29;20055;-63
2021/12/03 03:33:20;;;;;;;9.13;1.20;;;;;;;8.56;57.14;101072.59;4938180;29;20612;-62
2021/12/03 03:35:45;;;;;;;4.63;1.13;;;;;;;8.69;56.98;101071.94;4953496;28;20040;-63
2021/12/03 03:38:11;;;;;;;4.25;1.20;;;;;;;8.88;56.63;101061.13;4938111;29;20059;-64
2021/12/03 03:40:39;;;;;;;3.60;1.10;;;;;;;8.40;57.43;101066.38;4954800;29;20095;-62
2021/12/03 03:43:06;;;;;;;7.63;1.33;;;;;;;8.71;56.85;101060.72;4953476;29;20043;-61
2021/12/03 03:45:32;;;;;;;5.38;1.15;;;;;;;8.26;58.29;101057.19;4937885;29;20047;-64
2021/12/03 03:47:57;;;;;;;5.28;1.27;;;;;;;8.65;57.91;101049.03;4954285;29;20036;-63
2021/12/03 03:50:25;;;;;;;7.30;1.50;;;;;;;8.81;57.28;101047.00;4938099;29;20059;-63
2021/12/03 03:52:53;;;;;;;6.53;1.60;;;;;;;9.45;55.49;101046.91;4954211;29;20027;-63
2021/12/03 03:55:20;;;;;;;8.68;1.75;;;;;;;9.15;56.19;101048.06;4954867;29;20056;-61
2021/12/03 03:57:49;;;;;;;5.57;1.35;;;;;;;8.73;57.45;101047.56;4954165;29;20038;-62
2021/12/03 04:00:17;;;;;;;7.32;1.20;;;;;;;9.51;55.53;101051.22;4954397;29;20024;-62
2021/12/03 04:02:44;;;;;;;8.40;1.33;;;;;;;8.83;57.13;101061.19;4954582;29;20111;-65
2021/12/03 04:05:10;;;;;;;7.95;1.92;;;;;;;7.96;60.40;101062.50;4954232;29;20028;-62
2021/12/03 04:07:36;;;;;;;6.88;1.85;;;;;;;8.29;60.90;101048.44;4937888;29;20047;-62
2021/12/03 04:10:02;;;;;;;6.60;1.80;;;;;;;8.92;58.52;101060.56;4954244;29;20019;-62
2021/12/03 04:12:27;;;;;;;6.90;1.85;;;;;;;8.17;61.12;101062.41;4937837;29;20039;-63
2021/12/03 04:14:52;;;;;;;6.40;1.80;;;;;;;9.59;56.88;101041.53;4954072;29;20032;-64
2021/12/03 04:17:18;;;;;;;11.32;1.52;;;;;;;9.28;57.18;101047.38;4954233;29;20035;-64
2021/12/03 04:19:43;;;;;;;7.18;1.40;;;;;;;8.90;58.07;101056.19;4937377;29;20030;-63
2021/12/03 04:22:09;;;;;;;6.43;1.38;;;;;;;9.55;56.44;101067.88;4953573;29;20733;-62
2021/12/03 04:24:35;;;;;;;5.43;1.38;;;;;;;9.63;55.97;101050.81;4937172;29;20050;-63
2021/12/03 04:27:00;;;;;;;6.93;1.73;;;;;;;9.54;56.22;101047.09;4936712;29;20067;-62
2021/12/03 04:29:26;;;;;;;12.77;2.25;;;;;;;9.06;58.17;101047.84;4953912;29;20035;-61
2021/12/03 04:31:51;;;;;;;7.90;2.30;;;;;;;9.21;58.29;101047.72;4936921;29;20032;-60
2021/12/03 04:34:16;;;;;;;9.05;1.95;;;;;;;8.77;59.36;101043.19;4954049;29;20401;-62
2021/12/03 04:36:42;;;;;;;6.88;2.30;;;;;;;8.71;58.97;101034.19;4953993;29;20058;-63
2021/12/03 04:39:07;;;;;;;10.07;2.03;;;;;;;8.92;59.14;101033.22;4953379;29;20037;-61
2021/12/03 04:41:32;;;;;;;10.05;2.28;;;;;;;8.61;60.01;101030.75;4936937;29;20040;-62
2021/12/03 04:43:58;;;;;;;7.15;2.00;;;;;;;8.84;59.19;101024.50;4953447;29;20055;-62
2021/12/03 04:46:23;;;;;;;11.40;2.30;;;;;;;8.72;59.91;101026.84;4953918;29;20042;-62
2021/12/03 04:48:49;;;;;;;12.45;2.20;;;;;;;8.79;59.42;101027.31;4936981;29;20059;-62
2021/12/03 04:51:15;;;;;;;13.40;2.15;;;;;;;8.30;60.69;101022.72;4953722;29;20063;-63
2021/12/03 04:53:41;;;;;;;11.88;2.22;;;;;;;8.34;60.56;101013.69;4953421;29;20035;-63
2021/12/03 04:56:06;;;;;;;7.88;2.03;;;;;;;8.65;59.98;101024.44;4936679;29;20116;-63
2021/12/03 04:58:32;;;;;;;6.30;2.28;;;;;;;8.77;59.96;101020.50;4953942;29;20120;-63
2021/12/03 05:00:58;;;;;;;7.43;2.63;;;;;;;9.07;58.74;101014.75;4953383;29;20051;-61
2021/12/03 05:03:26;;;;;;;12.60;2.78;;;;;;;8.39;60.23;101009.28;4953943;29;20036;-63
2021/12/03 05:05:57;;;;;;;8.80;2.45;;;;;;;8.36;61.20;101016.94;4953683;29;20039;-62
2021/12/03 05:08:24;;;;;;;11.77;2.90;;;;;;;8.47;59.51;101017.72;4954110;29;20079;-62
2021/12/03 05:10:50;;;;;;;10.60;2.90;;;;;;;8.34;60.34;101018.34;4936955;29;20047;-64
2021/12/03 05:13:19;;;;;;;12.10;3.08;;;;;;;8.41;60.63;101012.53;4952600;29;20036;-63
2021/12/03 05:15:46;;;;;;;12.85;3.45;;;;;;;8.33;60.11;101008.50;4953782;29;20040;-64
2021/12/03 05:18:14;;;;;;;14.73;3.92;;;;;;;8.36;60.51;101007.94;4936750;29;20027;-64
2021/12/03 05:20:41;;;;;;;11.68;3.30;;;;;;;7.87;62.74;101008.78;4953544;29;20112;-64
2021/12/03 05:23:07;;;;;;;10.20;3.72;;;;;;;7.99;62.19;100998.34;4936808;29;20066;-62
2021/12/03 05:25:34;;;;;;;14.43;3.88;;;;;;;7.93;61.26;101002.19;4953788;29;20059;-64
2021/12/03 05:28:00;;;;;;;8.43;3.38;;;;;;;8.46;60.03;100998.88;4953081;29;20028;-63
2021/12/03 05:30:26;;;;;;;10.95;3.50;;;;;;;8.45;60.62;101006.25;4953744;29;20074;-66
2021/12/03 05:32:52;;;;;;;10.90;3.53;;;;;;;7.88;62.22;101005.78;4953651;29;20035;-64
2021/12/03 05:35:18;;;;;;;11.02;3.40;;;;;;;7.95;62.46;101002.72;4920717;29;20031;-62
2021/12/03 05:37:43;;;;;;;16.50;3.95;;;;;;;8.39;60.77;101010.09;4937177;29;20095;-63
2021/12/03 05:40:10;;;;;;;17.58;4.72;;;;;;;8.17;60.75;101002.31;4936418;29;20039;-65
2021/12/03 05:42:37;;;;;;;19.40;4.03;;;;;;;8.30;60.59;101004.44;4953807;29;20118;-63
2021/12/03 05:45:04;;;;;;;12.45;3.40;;;;;;;8.09;61.21;101003.72;4936288;29;20048;-63
2021/12/03 05:47:29;;;;;;;15.57;4.30;;;;;;;8.29;60.49;100996.53;4952577;29;20063;-63
2021/12/03 05:49:54;;;;;;;13.43;3.55;;;;;;;8.60;59.89;100982.66;4936774;29;20063;-66
2021/12/03 05:52:20;;;;;;;12.43;3.42;;;;;;;8.27;60.83;100988.63;4953169;29;20040;-66
2021/12/03 05:54:46;;;;;;;12.32;4.00;;;;;;;8.07;61.56;100978.63;4936739;29;20043;-63
2021/12/03 05:57:11;;;;;;;17.27;4.43;;;;;;;8.37;60.07;100974.06;4936413;29;20032;-63
2021/12/03 05:59:37;;;;;;;19.88;3.80;;;;;;;8.99;57.75;100985.28;4953643;29;20039;-64
2021/12/03 06:02:02;;;;;;;13.55;3.75;;;;;;;8.32;60.40;100985.84;4936502;29;20087;-62
2021/12/03 06:04:29;;;;;;;10.63;3.55;;;;;;;8.57;60.21;100988.69;4953566;29;20036;-62
2021/12/03 06:06:54;;;;;;;12.95;3.55;;;;;;;8.61;59.80;100995.22;4939238;29;20098;-63
2021/12/03 06:09:20;;;;;;;13.25;3.55;;;;;;;8.29;59.35;100991.06;4939800;29;20036;-63
2021/12/03 06:11:45;;;;;;;15.43;3.47;;;;;;;8.86;58.53;100991.41;4940268;29;20043;-66
2021/12/03 06:14:11;;;;;;;17.45;3.67;;;;;;;9.11;56.76;100993.09;4956593;29;20039;-63
2021/12/03 06:16:36;;;;;;;18.95;4.35;;;;;;;8.93;56.91;100994.66;4956938;29;20055;-63
2021/12/03 06:19:02;;;;;;;15.57;3.35;;;;;;;8.43;58.83;100983.88;4956550;29;20028;-65
2021/12/03 06:21:27;;;;;;;12.70;3.95;;;;;;;7.98;60.25;100991.25;4939768;29;20056;-63
2021/12/03 06:23:52;;;;;;;11.38;3.50;;;;;;;8.68;58.58;100991.03;4940019;29;20043;-62
2021/12/03 06:26:18;;;;;;;18.50;4.00;;;;;;;8.58;58.66;100990.31;4939441;29;20035;-63
2021/12/03 06:28:43;;;;;;;12.70;3.50;;;;;;;8.57;57.93;100992.22;4939997;29;20099;-65
2021/12/03 06:31:09;;;;;;;14.02;3.78;;;;;;;8.55;58.57;100994.44;4956215;29;20027;-65
2021/12/03 06:33:34;;;;;;;13.35;3.83;;;;;;;8.72;57.40;100985.81;4956614;29;20569;-64
2021/12/03 06:36:00;;;;;;;10.80;3.22;;;;;;;8.67;57.42;100988.59;4939560;29;20107;-64
2021/12/03 06:38:26;;;;;;;20.27;4.10;;;;;;;8.83;57.06;100992.03;4939484;29;20039;-62
2021/12/03 06:40:52;;;;;;;11.13;3.97;;;;;;;8.12;58.63;100994.97;4956310;29;20032;-63
2021/12/03 06:43:18;;;;;;;14.63;3.92;;;;;;;8.84;57.04;100994.44;4938791;29;20043;-61
2021/12/03 06:45:45;;;;;;;11.82;3.40;;;;;;;8.18;58.17;100985.66;4956229;29;20027;-64
2021/12/03 06:48:10;;;;;;;14.48;3.53;;;;;;;8.75;56.96;100982.53;4956083;29;20028;-63
2021/12/03 06:50:37;;;;;;;19.35;3.90;;;;;;;8.87;56.19;100982.94;4939377;29;20058;-62
2021/12/03 06:53:08;;;;;;;9.73;3.53;;;;;;;8.43;57.37;100975.69;4939333;29;20035;-61
2021/12/03 06:55:44;;;;;;;11.38;3.08;;;;;;;8.87;56.08;100972.00;4923971;29;20034;-65
2021/12/03 06:58:10;;;;;;;13.40;3.63;;;;;;;9.06;54.64;100960.34;4954706;29;20051;-64
2021/12/03 07:00:35;;;;;;;18.33;3.90;;;;;;;9.04;55.26;100948.88;4955966;29;20615;-62
2021/12/03 07:03:01;;;;;;;15.18;3.75;;;;;;;8.84;55.97;100964.38;4939093;29;20063;-62
2021/12/03 07:05:26;;;;;;;13.70;3.35;;;;;;;8.49;56.59;100966.31;4955203;29;20052;-64
2021/12/03 07:07:52;;;;;;;14.02;3.15;;;;;;;8.74;56.57;100967.22;4923304;29;20033;-65
2021/12/03 07:10:17;;;;;;;17.38;3.92;;;;;;;8.17;57.46;100970.34;4955399;29;20055;-64
2021/12/03 07:12:42;;;;;;;14.63;3.78;;;;;;;9.13;55.04;100974.50;4955458;29;20721;-64
2021/12/03 07:15:09;;;;;;;13.25;3.50;;;;;;;8.76;56.08;100981.41;4955513;29;20055;-62
2021/12/03 07:17:34;;;;;;;18.80;4.72;;;;;;;8.38;56.97;100969.41;4954969;29;20034;-62
2021/12/03 07:20:00;;;;;;;14.07;4.00;;;;;;;8.67;55.98;100974.91;4938564;29;20055;-64
2021/12/03 07:22:27;;;;;;;14.95;4.40;;;;;;;7.87;57.13;100971.38;4937719;29;20066;-62
2021/12/03 07:24:53;;;;;;;9.82;3.90;;;;;;;8.38;57.09;100972.13;4938438;29;20032;-65
2021/12/03 07:27:20;;;;;;;14.40;4.32;;;;;;;7.92;57.01;100967.78;4937863;29;20086;-63
2021/12/03 07:29:47;;;;;;;18.73;4.82;;;;;;;8.16;56.36;100965.19;4955154;29;20032;-63
2021/12/03 07:32:16;;;;;;;11.52;4.07;;;;;;;8.22;56.13;100960.50;4938327;29;20028;-62
2021/12/03 07:34:42;;;;;;;14.10;4.40;;;;;;;8.62;55.14;100958.56;4938830;29;20023;-63
2021/12/03 07:37:08;;;;;;;11.20;4.38;;;;;;;7.97;56.55;100962.31;4954824;29;20034;-64
2021/12/03 07:39:33;;;;;;;14.20;4.07;;;;;;;8.46;55.01;100961.47;4954543;29;20032;-66
2021/12/03 07:41:59;;;;;;;16.38;4.18;;;;;;;8.24;56.12;100974.69;4938208;29;20046;-62
2021/12/03 07:44:24;;;;;;;13.55;4.57;;;;;;;8.35;55.09;100974.34;4921895;29;20087;-62
2021/12/03 07:46:49;;;;;;;19.30;4.25;;;;;;;8.58;54.92;100963.00;4921998;29;20781;-63
2021/12/03 07:49:15;;;;;;;13.70;3.90;;;;;;;8.42;54.58;100954.09;4937645;29;20039;-65
2021/12/03 07:51:40;;;;;;;10.85;4.00;;;;;;;8.61;54.51;100946.03;4937892;29;20039;-63
2021/12/03 07:54:06;;;;;;;13.45;4.32;;;;;;;7.86;56.25;100938.91;4937946;29;20035;-61
2021/12/03 07:56:31;;;;;;;12.50;4.43;;;;;;;7.17;58.03;100928.59;4937286;29;20099;-64
2021/12/03 07:58:57;;;;;;;21.02;4.22;;;;;;;7.84;56.09;100939.19;4954940;29;20052;-63
2021/12/03 08:01:24;;;;;;;15.50;4.30;;;;;;;8.32;55.38;100944.06;4921544;29;20566;-60
2021/12/03 08:03:49;;;;;;;10.88;4.10;;;;;;;8.17;55.35;100947.72;4938136;29;20032;-60
2021/12/03 08:06:15;;;;;;;18.10;4.63;;;;;;;8.20;55.31;100949.06;4954041;29;20032;-62
2021/12/03 08:08:41;;;;;;;15.05;4.63;;;;;;;8.07;55.44;100943.13;4954431;29;20083;-63
2021/12/03 08:11:07;;;;;;;10.13;4.00;;;;;;;8.72;54.23;100936.63;4954614;29;20109;-63
2021/12/03 08:13:34;;;;;;;13.00;4.18;;;;;;;8.40;55.15;100943.44;4937186;29;20032;-63
2021/12/03 08:16:00;;;;;;;14.77;4.70;;;;;;;7.91;55.92;100927.97;4954383;29;20042;-62
2021/12/03 08:18:26;;;;;;;14.17;4.50;;;;;;;7.91;56.51;100931.50;4954011;29;20034;-64
2021/12/03 08:20:53;;;;;;;15.40;5.13;;;;;;;8.47;55.01;100930.28;4937626;29;20048;-62
2021/12/03 08:23:18;;;;;;;11.27;5.07;;;;;;;8.05;55.51;100931.69;4939279;29;20027;-62
2021/12/03 08:25:44;;;;;;;13.20;5.28;;;;;;;8.12;55.62;100929.44;4955894;29;20038;-62
2021/12/03 08:28:10;;;;;;;10.98;4.18;;;;;;;7.50;56.82;100917.28;4972066;28;20027;-62
2021/12/03 08:30:35;;;;;;;13.95;4.88;;;;;;;8.33;55.43;100918.34;4971684;29;20035;-62
2021/12/03 08:33:01;;;;;;;13.07;5.40;;;;;;;7.81;56.15;100916.00;4952825;29;20027;-63
2021/12/03 08:35:26;;;;;;;12.93;4.43;;;;;;;7.89;56.45;100916.50;4967862;29;20027;-61
2021/12/03 08:37:52;;;;;;;10.30;4.00;;;;;;;7.68;56.40;100897.50;4954307;29;20063;-64
2021/12/03 08:40:20;;;;;;;14.13;4.20;;;;;;;8.13;55.65;100903.78;4968350;29;20091;-61
2021/12/03 08:42:46;;;;;;;11.50;3.63;;;;;;;8.56;54.35;100894.13;4953942;29;20039;-60
2021/12/03 08:45:13;;;;;;;12.25;3.80;;;;;;;8.11;55.75;100895.06;4966969;29;20035;-63
2021/12/03 08:47:39;;;;;;;15.15;4.35;;;;;;;8.19;55.78;100901.78;4952336;29;20035;-63
2021/12/03 08:50:12;;;;;;;10.70;3.77;;;;;;;8.41;55.39;100898.59;4969505;29;20050;-62
2021/12/03 08:53:09;;;;;;;9.38;3.25;;;;;;;8.19;55.35;100901.78;4954811;29;20027;-63
2021/12/03 08:55:35;;;;;;;10.38;3.00;;;;;;;8.19;55.47;100896.34;4959326;29;20035;-64
2021/12/03 08:58:00;;;;;;;7.55;3.13;;;;;;;8.69;53.85;100888.00;4972556;29;20090;-63
2021/12/03 09:00:26;;;;;;;8.07;2.90;;;;;;;8.62;54.68;100892.97;4971894;29;20035;-62
2021/12/03 09:02:52;;;;;;;13.20;2.95;;;;;;;7.89;56.16;100884.56;4972402;28;20042;-61
2021/12/03 09:05:17;;;;;;;9.07;3.00;;;;;;;8.56;54.82;100870.38;4955344;29;20027;-62
2021/12/03 09:07:43;;;;;;;9.23;2.83;;;;;;;8.11;55.65;100875.09;4971694;29;20038;-61
2021/12/03 09:10:13;;;;;;;7.78;2.50;;;;;;;8.37;55.18;100878.44;4955291;29;20042;-61
2021/12/03 09:12:39;;;;;;;14.50;3.30;;;;;;;8.00;55.55;100868.91;4971860;29;20027;-62
2021/12/03 09:15:09;;;;;;;7.57;2.55;;;;;;;8.70;54.27;100862.28;4955845;29;20034;-64
2021/12/03 09:17:41;;;;;;;11.10;2.53;;;;;;;7.96;56.18;100859.69;4968180;29;20032;-62
2021/12/03 09:22:58;;;;;;;10.93;3.05;;;;;;;8.03;56.39;100854.69;4971923;29;20047;-64
2021/12/03 09:25:32;;;;;;;10.02;2.92;;;;;;;8.19;55.81;100847.19;4972209;29;20023;-63
2021/12/03 09:28:02;;;;;;;8.02;2.67;;;;;;;7.84;56.81;100859.22;4940100;29;20043;-63
2021/12/03 09:30:28;;;;;;;15.07;3.38;;;;;;;7.95;56.55;100849.84;4971729;28;20011;-62
2021/12/03 09:32:56;;;;;;;9.48;2.72;;;;;;;7.72;56.79;100848.66;4972261;29;20042;-62
2021/12/03 09:35:23;;;;;;;13.38;4.40;;;;;;;7.51;58.07;100846.06;4970581;28;20031;-65
2021/12/03 09:37:49;;;;;;;15.50;2.88;;;;;;;7.80;57.05;100840.69;4971634;29;20086;-63
2021/12/03 09:40:21;;;;;;;13.80;3.33;;;;;;;7.94;57.09;100845.50;4971921;28;20023;-63
2021/12/03 09:42:47;;;;;;;12.88;3.55;;;;;;;7.71;58.38;100845.09;4943455;29;20082;-61
2021/12/03 09:45:13;;;;;;;14.88;3.63;;;;;;;8.06;57.43;100845.94;4975727;29;20027;-62
2021/12/03 09:47:38;;;;;;;16.65;4.15;;;;;;;7.74;57.99;100830.88;4975568;29;20061;-62
2021/12/03 09:50:09;;;;;;;13.38;3.67;;;;;;;7.82;58.02;100827.56;4972107;29;20032;-63
2021/12/03 09:55:02;;;;;;;19.08;4.45;;;;;;;7.34;59.80;100832.78;4975913;29;20067;-61
2021/12/03 09:57:50;;;;;;;19.52;4.38;;;;;;;7.94;58.35;100824.47;4975832;29;20050;-63
2021/12/03 10:19:17;;;;;;;23.63;5.65;;;;;;;7.33;62.25;100792.97;4960686;29;20047;-63
2021/12/03 10:25:11;;;;;;;15.48;5.72;;;;;;;7.92;61.86;100777.53;4958344;29;20070;-63
2021/12/03 10:31:01;;;;;;;21.98;6.07;;;;;;;7.67;62.76;100781.31;4972964;29;20062;-61
2021/12/03 10:39:53;;;;;;;22.63;6.28;;;;;;;7.88;61.42;100735.53;4950411;29;20072;-65
2021/12/03 11:31:26;;;;;;;14.80;4.50;;;;;;;8.57;59.62;100668.97;4973604;29;20035;-62
2021/12/03 11:37:11;;;;;;;;;;;;;;;8.41;60.65;100646.47;4971213;29;20033;-65
2021/12/03 13:13:42;;;;;;;16.35;6.10;;;;;;;7.94;62.37;100496.91;4958301;29;20518;-63
2021/12/03 14:39:50;;;;;;;16.35;10.00;;;;;;;7.91;66.87;100474.84;4975130;29;20039;-64
2021/12/03 14:44:23;;;;;;;15.68;10.88;;;;;;;8.48;64.97;100475.66;4974480;29;20043;-66
2021/12/03 14:55:30;;;;;;;14.93;10.13;;;;;;;8.80;64.43;100457.63;4974650;29;20039;-64
2021/12/03 14:58:08;;;;;;;18.38;9.48;;;;;;;8.26;66.64;100451.66;4974818;29;20023;-65
2021/12/03 15:00:49;;;;;;;18.10;11.95;;;;;;;8.42;65.43;100462.34;4974880;29;20038;-64
2021/12/03 15:09:21;;;;;;;15.93;11.05;;;;;;;8.75;65.09;100441.31;4974258;29;20095;-64
2021/12/03 15:30:05;;;;;;;19.30;12.50;;;;;;;9.06;64.26;100432.53;4955719;29;20811;-65
2021/12/03 15:57:24;;;;;;;27.52;18.05;;;;;;;8.87;65.13;100395.16;4948994;29;20050;-63
2021/12/03 16:05:48;;;;;;;29.48;18.75;;;;;;;8.50;66.06;100393.41;4944020;29;20050;-61
2021/12/03 16:08:22;;;;;;;29.58;18.67;;;;;;;8.70;65.52;100384.84;4961208;29;20027;-63
2021/12/03 16:13:33;;;;;;;31.08;19.58;;;;;;;8.52;65.64;100383.75;4962572;29;20036;-63
2021/12/03 16:53:23;;;;;;;31.17;19.45;;;;;;;9.69;62.09;100378.16;4955906;29;20054;-64
2021/12/03 16:58:40;;;;;;;31.98;20.08;;;;;;;8.85;64.53;100377.44;4924714;29;20039;-64
2021/12/03 17:30:08;;;;;;;37.00;19.55;;;;;;;9.10;63.70;100307.78;4971829;29;20050;-60
2021/12/03 17:51:49;;;;;;;35.83;19.52;;;;;;;9.47;62.90;100327.75;4972008;29;20054;-63
2021/12/03 17:57:03;;;;;;;37.42;20.55;;;;;;;9.65;61.18;100320.50;4972106;29;20054;-62
2021/12/03 17:59:42;;;;;;;37.55;19.80;;;;;;;10.08;60.79;100308.25;4971721;29;20027;-64
2021/12/03 18:12:33;;;;;;;30.20;17.42;;;;;;;9.82;61.85;100300.66;4975374;29;20071;-61
2021/12/03 18:50:50;;;;;;;30.30;17.48;;;;;;;10.01;61.78;100305.16;4974686;29;20792;-63
2021/12/03 18:55:50;;;;;;;29.35;16.48;;;;;;;9.86;61.54;100304.38;4968372;29;20035;-62
2021/12/03 18:58:16;;;;;;;28.05;16.27;;;;;;;9.26;64.23;100303.59;4974733;29;20031;-63
2021/12/03 19:00:44;;;;;;;27.85;15.40;;;;;;;9.23;63.87;100306.13;4957265;29;20139;-63
2021/12/03 19:11:04;;;;;;;25.98;15.65;;;;;;;9.41;63.08;100298.88;4958844;29;20035;-62
2021/12/03 19:13:35;;;;;;;27.50;16.33;;;;;;;9.74;62.54;100299.47;4942222;29;20043;-62
2021/12/03 19:16:02;;;;;;;28.67;14.93;;;;;;;9.61;62.09;100295.69;4947090;29;20035;-62
2021/12/03 19:18:28;;;;;;;28.95;16.33;;;;;;;9.47;63.26;100300.41;4972205;29;20028;-62
2021/12/03 19:20:53;;;;;;;26.50;14.82;;;;;;;9.34;63.37;100288.38;4969902;28;20019;-62
2021/12/03 19:23:19;;;;;;;26.30;15.68;;;;;;;9.31;63.61;100278.03;4956427;29;20055;-61
2021/12/03 19:25:45;;;;;;;27.98;16.08;;;;;;;9.41;63.62;100277.00;4955204;29;20027;-61
2021/12/03 19:28:10;;;;;;;30.70;17.48;;;;;;;9.78;62.32;100270.38;4959611;29;20024;-63
2021/12/03 19:30:36;;;;;;;30.67;17.80;;;;;;;9.93;62.49;100260.94;4967367;29;20030;-61